Time;durP1;ratioP1;P1;durP2;ratioP2;P2;SDS_P1;SDS_P2;PMS_P1;PMS_P2;Temp;Humidity;BMP_temperature;BMP_pressure;BME280_temperature;BME280_humidity;BME280_pressure;Samples;Min_cycle;Max_cycle;Signal;HPM_P1;HPM_P2
2022/07/01 00:02:21;;;;;;;8.17;4.40;;;;;;;;;;4917178;29;20223;-83
2022/07/01 00:05:25;;;;;;;9.63;4.27;;;;;;;;;;4916197;29;20220;-84
2022/07/01 00:08:29;;;;;;;4.20;3.33;;;;;;;;;;4905475;29;20525;-84
2022/07/01 00:11:33;;;;;;;5.43;3.47;;;;;;;;;;4916081;29;20660;-85
2022/07/01 00:14:38;;;;;;;7.57;3.70;;;;;;;;;;4916451;29;20216;-84
2022/07/01 00:17:43;;;;;;;6.20;3.60;;;;;;;;;;4915644;29;20184;-84
2022/07/01 00:20:47;;;;;;;5.50;3.50;;;;;;;;;;4935281;28;20203;-84
2022/07/01 00:23:51;;;;;;;7.23;3.60;;;;;;;;;;4943386;28;20175;-84
2022/07/01 00:26:55;;;;;;;7.40;3.30;;;;;;;;;;4942716;28;20187;-84
2022/07/01 00:29:59;;;;;;;3.93;3.30;;;;;;;;;;4954061;28;20186;-84
2022/07/01 00:33:04;;;;;;;4.50;3.10;;;;;;;;;;4915837;29;20373;-84
2022/07/01 00:36:08;;;;;;;5.20;3.40;;;;;;;;;;4915511;29;20223;-84
2022/07/01 00:39:12;;;;;;;3.73;3.00;;;;;;;;;;4915257;29;20188;-84
2022/07/01 00:42:16;;;;;;;5.47;3.17;;;;;;;;;;4926144;29;20631;-84
2022/07/01 00:45:20;;;;;;;5.03;3.00;;;;;;;;;;4911588;28;20226;-84
2022/07/01 00:48:24;;;;;;;5.40;3.10;;;;;;;;;;4942842;28;20207;-84
2022/07/01 00:51:28;;;;;;;6.23;3.30;;;;;;;;;;4953174;28;20198;-84
2022/07/01 00:54:35;;;;;;;7.20;3.03;;;;;;;;;;4914969;29;20220;-84
2022/07/01 00:57:42;;;;;;;7.83;3.03;;;;;;;;;;4915328;29;20184;-84
2022/07/01 01:00:46;;;;;;;7.00;3.13;;;;;;;;;;4938184;29;20180;-84
2022/07/01 01:03:51;;;;;;;3.53;2.73;;;;;;;;;;4904889;29;20180;-84
2022/07/01 01:06:56;;;;;;;6.13;2.70;;;;;;;;;;4914828;29;20528;-84
2022/07/01 01:10:01;;;;;;;5.07;3.00;;;;;;;;;;4914848;29;20192;-84
2022/07/01 01:13:08;;;;;;;4.63;2.73;;;;;;;;;;4915379;29;20216;-84
2022/07/01 01:16:22;;;;;;;5.77;2.70;;;;;;;;;;4915099;29;20219;-84
2022/07/01 01:19:27;;;;;;;3.73;2.60;;;;;;;;;;4915598;29;20184;-84
2022/07/01 01:22:31;;;;;;;3.50;3.17;;;;;;;;;;4926057;29;20184;-84
2022/07/01 01:25:35;;;;;;;4.30;2.93;;;;;;;;;;4925674;29;20220;-84
2022/07/01 01:28:39;;;;;;;4.90;2.60;;;;;;;;;;4945025;28;20190;-84
2022/07/01 01:31:43;;;;;;;3.70;3.23;;;;;;;;;;4941874;28;20515;-84
2022/07/01 01:34:47;;;;;;;2.90;2.60;;;;;;;;;;4964214;28;20206;-84
2022/07/01 01:37:51;;;;;;;4.50;2.47;;;;;;;;;;4952476;28;20527;-84
2022/07/01 01:40:55;;;;;;;2.67;2.30;;;;;;;;;;4914608;29;20204;-84
2022/07/01 01:44:00;;;;;;;3.10;2.33;;;;;;;;;;4925329;29;20196;-84
2022/07/01 01:47:04;;;;;;;3.10;2.63;;;;;;;;;;4907655;29;20532;-85
2022/07/01 01:50:10;;;;;;;4.07;2.33;;;;;;;;;;4928929;29;20204;-84
2022/07/01 01:53:14;;;;;;;8.27;2.37;;;;;;;;;;4907457;29;20694;-84
2022/07/01 01:56:18;;;;;;;5.37;2.40;;;;;;;;;;4928786;29;20718;-84
2022/07/01 01:59:23;;;;;;;3.30;2.67;;;;;;;;;;4928690;29;20663;-84
2022/07/01 02:02:27;;;;;;;3.67;2.30;;;;;;;;;;4917595;29;20270;-84
2022/07/01 02:05:31;;;;;;;5.13;2.40;;;;;;;;;;4940440;28;20218;-84
2022/07/01 02:08:37;;;;;;;2.30;2.07;;;;;;;;;;4945263;28;20183;-84
2022/07/01 02:11:41;;;;;;;2.93;2.37;;;;;;;;;;4945332;28;20207;-84
2022/07/01 02:14:45;;;;;;;2.13;1.93;;;;;;;;;;4944889;28;20234;-84
2022/07/01 02:17:51;;;;;;;5.40;2.13;;;;;;;;;;4917957;29;20204;-84
2022/07/01 02:20:55;;;;;;;2.40;2.13;;;;;;;;;;4917522;29;20188;-84
2022/07/01 02:23:59;;;;;;;2.57;1.90;;;;;;;;;;4917443;29;20196;-84
2022/07/01 02:27:03;;;;;;;4.23;2.13;;;;;;;;;;4918152;29;20204;-84
2022/07/01 02:30:08;;;;;;;2.00;1.80;;;;;;;;;;4917904;29;20204;-84
2022/07/01 02:33:12;;;;;;;4.20;1.87;;;;;;;;;;4918020;29;20224;-84
2022/07/01 02:36:16;;;;;;;7.57;2.10;;;;;;;;;;4918136;29;20215;-84
2022/07/01 02:39:21;;;;;;;3.63;1.93;;;;;;;;;;4940633;29;20623;-84
2022/07/01 02:42:26;;;;;;;3.97;1.60;;;;;;;;;;4907421;29;20192;-84
2022/07/01 02:45:30;;;;;;;1.70;1.57;;;;;;;;;;4955961;28;20214;-84
2022/07/01 02:48:34;;;;;;;1.60;1.50;;;;;;;;;;4945178;28;20187;-84
2022/07/01 02:51:38;;;;;;;3.47;1.30;;;;;;;;;;4956040;28;20182;-84
2022/07/01 02:54:43;;;;;;;2.07;1.60;;;;;;;;;;4932648;29;20719;-84
2022/07/01 02:57:51;;;;;;;6.73;1.50;;;;;;;;;;4916565;29;20180;-84
2022/07/01 03:00:55;;;;;;;3.47;1.40;;;;;;;;;;4928049;29;20180;-84
2022/07/01 03:03:59;;;;;;;1.60;1.43;;;;;;;;;;4953070;28;20198;-84
2022/07/01 03:07:03;;;;;;;5.03;1.57;;;;;;;;;;4938046;29;20200;-84
2022/07/01 03:10:08;;;;;;;1.50;1.40;;;;;;;;;;4927936;29;20200;-84
2022/07/01 03:13:12;;;;;;;2.00;1.50;;;;;;;;;;4938952;28;20222;-84
2022/07/01 03:16:16;;;;;;;2.47;1.60;;;;;;;;;;4943909;28;20215;-84
2022/07/01 03:19:20;;;;;;;3.20;1.53;;;;;;;;;;4955991;28;20187;-83
2022/07/01 03:22:27;;;;;;;2.63;1.27;;;;;;;;;;4956929;28;20179;-83
2022/07/01 03:25:32;;;;;;;3.03;1.53;;;;;;;;;;4918256;29;20224;-83
2022/07/01 03:28:36;;;;;;;3.43;1.20;;;;;;;;;;4918630;29;20188;-84
2022/07/01 03:31:40;;;;;;;1.57;1.10;;;;;;;;;;4923301;29;20643;-84
2022/07/01 03:34:47;;;;;;;2.67;1.37;;;;;;;;;;4962344;28;20230;-84
2022/07/01 03:37:51;;;;;;;4.83;1.30;;;;;;;;;;4943882;28;20203;-84
2022/07/01 03:40:55;;;;;;;1.43;1.20;;;;;;;;;;4929179;28;20535;-84
2022/07/01 03:44:00;;;;;;;2.47;1.30;;;;;;;;;;4941852;29;20180;-84
2022/07/01 03:47:07;;;;;;;1.40;1.30;;;;;;;;;;4952144;29;20180;-84
2022/07/01 03:50:12;;;;;;;1.50;1.13;;;;;;;;;;4939680;29;20199;-84
2022/07/01 03:56:38;;;;;;;1.43;1.30;;;;;;;;;;4954999;28;20194;-84
2022/07/01 03:59:43;;;;;;;2.07;1.17;;;;;;;;;;4945411;28;20198;-84
2022/07/01 04:02:48;;;;;;;3.33;1.30;;;;;;;;;;4944357;28;20202;-84
2022/07/01 04:05:52;;;;;;;1.23;0.87;;;;;;;;;;4941095;28;20223;-84
2022/07/01 04:08:56;;;;;;;3.63;1.33;;;;;;;;;;4923867;29;20199;-84
2022/07/01 04:12:01;;;;;;;1.47;1.30;;;;;;;;;;4926133;29;20175;-84
2022/07/01 04:15:05;;;;;;;1.60;1.20;;;;;;;;;;4936964;29;20226;-84
2022/07/01 04:18:10;;;;;;;1.20;1.10;;;;;;;;;;4916165;29;20177;-84
2022/07/01 04:24:37;;;;;;;1.63;1.00;;;;;;;;;;4916151;29;20220;-84
2022/07/01 04:27:41;;;;;;;2.00;1.20;;;;;;;;;;4910184;28;20188;-84
2022/07/01 04:30:45;;;;;;;1.40;1.20;;;;;;;;;;4919562;28;20234;-86
2022/07/01 04:33:50;;;;;;;1.93;1.00;;;;;;;;;;4941926;28;20554;-86
2022/07/01 04:36:55;;;;;;;1.73;1.13;;;;;;;;;;4915894;29;20192;-85
2022/07/01 04:40:00;;;;;;;1.30;1.07;;;;;;;;;;4915970;29;20184;-85
2022/07/01 04:43:04;;;;;;;4.03;1.20;;;;;;;;;;4963863;28;20186;-85
2022/07/01 04:46:08;;;;;;;4.13;1.43;;;;;;;;;;4953470;28;20222;-86
2022/07/01 04:49:12;;;;;;;2.97;1.30;;;;;;;;;;4964451;28;20183;-86
2022/07/01 04:52:16;;;;;;;1.50;1.10;;;;;;;;;;4922464;29;20211;-85
2022/07/01 04:55:21;;;;;;;2.80;1.27;;;;;;;;;;4938755;23;20240;-87
2022/07/01 04:58:25;;;;;;;2.60;1.40;;;;;;;;;;4960617;28;20194;-88
2022/07/01 05:01:29;;;;;;;5.03;1.13;;;;;;;;;;4960877;28;20190;-88
2022/07/01 05:04:34;;;;;;;6.07;1.23;;;;;;;;;;4971792;28;20178;-88
2022/07/01 05:07:38;;;;;;;1.63;1.03;;;;;;;;;;4942399;28;20195;-88
2022/07/01 05:10:43;;;;;;;1.37;1.00;;;;;;;;;;4952306;28;20178;-88
2022/07/01 05:13:47;;;;;;;1.77;1.17;;;;;;;;;;4938376;28;20614;-88
2022/07/01 05:16:51;;;;;;;2.93;1.20;;;;;;;;;;4926767;28;20222;-88
2022/07/01 05:23:18;;;;;;;2.10;1.20;;;;;;;;;;4944458;28;20188;-88
2022/07/01 05:26:24;;;;;;;3.57;0.93;;;;;;;;;;4936910;28;20222;-88
2022/07/01 05:29:28;;;;;;;1.40;1.20;;;;;;;;;;4951549;28;20194;-88
2022/07/01 05:32:33;;;;;;;1.53;1.10;;;;;;;;;;4935446;28;20555;-88
2022/07/01 05:35:37;;;;;;;1.20;1.10;;;;;;;;;;4921743;29;20231;-88
2022/07/01 05:38:41;;;;;;;1.33;1.20;;;;;;;;;;4921957;29;20203;-88
2022/07/01 05:41:45;;;;;;;2.67;1.23;;;;;;;;;;4943584;28;20199;-88
2022/07/01 05:44:49;;;;;;;3.00;1.27;;;;;;;;;;4941458;28;20554;-87
2022/07/01 05:47:53;;;;;;;2.60;1.47;;;;;;;;;;4941180;28;20515;-88
2022/07/01 05:50:57;;;;;;;1.50;1.17;;;;;;;;;;4923348;28;20183;-89
2022/07/01 05:54:02;;;;;;;1.73;1.30;;;;;;;;;;4944630;29;20207;-89
2022/07/01 05:57:06;;;;;;;2.90;1.40;;;;;;;;;;4922324;29;20222;-88
2022/07/01 06:00:11;;;;;;;2.47;1.67;;;;;;;;;;4922403;29;20205;-88
2022/07/01 06:03:18;;;;;;;2.87;1.47;;;;;;;;;;4939130;28;20179;-88
2022/07/01 06:06:22;;;;;;;1.73;1.50;;;;;;;;;;4940675;28;20210;-88
2022/07/01 06:09:26;;;;;;;1.83;1.60;;;;;;;;;;4950766;28;20630;-88
2022/07/01 06:12:30;;;;;;;2.93;1.77;;;;;;;;;;4948221;28;20202;-88
2022/07/01 06:15:34;;;;;;;1.90;1.33;;;;;;;;;;4937702;28;20223;-89
2022/07/01 06:18:38;;;;;;;2.37;1.70;;;;;;;;;;4933455;28;20203;-89
2022/07/01 06:21:42;;;;;;;2.07;1.80;;;;;;;;;;4935346;28;20199;-87
2022/07/01 06:24:49;;;;;;;2.23;1.77;;;;;;;;;;4940755;28;20191;-87
2022/07/01 06:27:54;;;;;;;3.20;2.03;;;;;;;;;;4941047;28;20203;-89
2022/07/01 06:30:58;;;;;;;2.13;1.53;;;;;;;;;;4935118;28;20671;-89
2022/07/01 06:34:02;;;;;;;1.50;1.20;;;;;;;;;;4925080;29;20188;-89
2022/07/01 06:37:06;;;;;;;1.20;1.10;;;;;;;;;;4933152;29;20219;-89
2022/07/01 06:40:10;;;;;;;3.70;1.30;;;;;;;;;;4936092;28;20183;-89
2022/07/01 06:43:14;;;;;;;1.30;0.93;;;;;;;;;;4944181;28;20179;-89
2022/07/01 06:46:19;;;;;;;2.73;1.13;;;;;;;;;;4943586;28;20214;-89
2022/07/01 06:49:24;;;;;;;1.23;1.00;;;;;;;;;;4954874;28;20179;-89
2022/07/01 06:52:28;;;;;;;0.73;0.73;;;;;;;;;;4946473;29;20207;-89
2022/07/01 06:55:32;;;;;;;3.00;1.00;;;;;;;;;;4924665;29;20235;-89
2022/07/01 06:58:37;;;;;;;1.13;1.03;;;;;;;;;;4925883;29;20196;-89
2022/07/01 07:01:42;;;;;;;1.00;0.90;;;;;;;;;;4940607;28;20191;-89
2022/07/01 07:04:46;;;;;;;2.27;1.00;;;;;;;;;;4943543;28;20191;-88
2022/07/01 07:07:50;;;;;;;1.37;0.97;;;;;;;;;;4938826;28;20198;-88
2022/07/01 07:10:54;;;;;;;1.93;1.00;;;;;;;;;;4942932;28;20195;-88
2022/07/01 07:13:58;;;;;;;1.03;0.90;;;;;;;;;;4924940;29;20195;-89
2022/07/01 07:17:03;;;;;;;1.20;1.10;;;;;;;;;;4934955;29;20567;-88
2022/07/01 07:20:07;;;;;;;2.00;1.07;;;;;;;;;;4942231;28;20199;-88
2022/07/01 07:23:11;;;;;;;1.30;1.10;;;;;;;;;;4954425;28;20191;-88
2022/07/01 07:26:15;;;;;;;1.73;0.70;;;;;;;;;;4924080;29;20219;-88
2022/07/01 07:29:19;;;;;;;0.70;0.70;;;;;;;;;;4925089;28;20203;-89
2022/07/01 07:32:23;;;;;;;1.70;0.90;;;;;;;;;;4932013;28;20190;-88
2022/07/01 07:35:28;;;;;;;0.63;0.60;;;;;;;;;;4935829;28;20235;-89
2022/07/01 07:38:32;;;;;;;0.70;0.70;;;;;;;;;;4943756;28;20202;-88
2022/07/01 07:41:36;;;;;;;1.10;0.80;;;;;;;;;;4940091;28;20200;-89
2022/07/01 07:44:41;;;;;;;3.70;1.60;;;;;;;;;;4923776;29;20184;-88
2022/07/01 07:47:51;;;;;;;2.13;1.00;;;;;;;;;;4934449;29;20176;-89
2022/07/01 07:50:55;;;;;;;1.33;1.00;;;;;;;;;;4956087;29;20196;-89
2022/07/01 07:54:01;;;;;;;3.43;1.03;;;;;;;;;;4943025;28;20206;-88
2022/07/01 07:57:06;;;;;;;1.50;1.13;;;;;;;;;;4926253;28;20219;-91
2022/07/01 08:00:12;;;;;;;1.63;1.47;;;;;;;;;;4947042;28;20207;-91
2022/07/01 08:03:16;;;;;;;1.63;1.37;;;;;;;;;;4948040;28;20196;-91
2022/07/01 08:06:20;;;;;;;1.87;1.07;;;;;;;;;;4940020;28;20222;-91
2022/07/01 08:09:25;;;;;;;1.73;1.07;;;;;;;;;;4953678;28;20175;-91
2022/07/01 08:12:30;;;;;;;1.30;1.20;;;;;;;;;;4942480;28;20179;-90
2022/07/01 08:15:34;;;;;;;1.93;1.63;;;;;;;;;;4928155;29;20597;-91
2022/07/01 08:18:38;;;;;;;3.70;1.97;;;;;;;;;;4928296;28;20186;-92
2022/07/01 08:21:42;;;;;;;1.93;1.80;;;;;;;;;;4941301;28;20673;-91
2022/07/01 08:24:46;;;;;;;1.60;1.50;;;;;;;;;;4942253;28;20195;-91
2022/07/01 08:27:50;;;;;;;2.10;1.63;;;;;;;;;;4964858;28;20182;-91
2022/07/01 08:30:54;;;;;;;1.30;1.20;;;;;;;;;;4951299;28;20191;-92
2022/07/01 08:33:59;;;;;;;1.20;1.10;;;;;;;;;;4962115;28;20658;-92
2022/07/01 08:37:04;;;;;;;1.30;0.60;;;;;;;;;;4953002;28;20211;-91
2022/07/01 08:40:08;;;;;;;2.10;0.60;;;;;;;;;;4952999;28;20187;-92
2022/07/01 08:43:13;;;;;;;0.70;0.60;;;;;;;;;;4959333;28;20203;-91
2022/07/01 08:46:17;;;;;;;1.80;1.00;;;;;;;;;;4922646;29;20215;-90
2022/07/01 08:49:22;;;;;;;1.13;0.63;;;;;;;;;;4933626;29;20555;-90
2022/07/01 08:52:25;;;;;;;1.13;1.00;;;;;;;;;;4922626;29;20183;-89
2022/07/01 08:55:31;;;;;;;0.90;0.70;;;;;;;;;;4922176;28;20571;-90
2022/07/01 08:58:38;;;;;;;2.30;0.70;;;;;;;;;;4924815;28;20527;-90
2022/07/01 09:01:43;;;;;;;0.93;0.77;;;;;;;;;;4936970;29;20662;-90
2022/07/01 09:05:04;;;;;;;2.33;1.20;;;;;;;;;;4959902;28;20191;-90
2022/07/01 09:08:08;;;;;;;3.77;1.43;;;;;;;;;;4932884;29;20187;-89
2022/07/01 09:11:21;;;;;;;2.70;1.10;;;;;;;;;;4944368;28;20191;-88
2022/07/01 09:14:30;;;;;;;1.80;1.40;;;;;;;;;;4933564;28;20198;-91
2022/07/01 09:17:38;;;;;;;1.33;1.23;;;;;;;;;;4923563;29;20188;-89
2022/07/01 09:20:45;;;;;;;3.10;1.50;;;;;;;;;;4921954;29;20654;-89
2022/07/01 09:23:50;;;;;;;2.93;1.20;;;;;;;;;;4938540;28;20187;-89
2022/07/01 09:27:16;;;;;;;3.17;1.30;;;;;;;;;;4926631;28;20227;-88
2022/07/01 09:30:26;;;;;;;2.13;1.40;;;;;;;;;;4933060;29;20187;-89
2022/07/01 09:33:31;;;;;;;3.83;1.83;;;;;;;;;;4924765;28;20199;-89
2022/07/01 09:36:42;;;;;;;3.60;1.43;;;;;;;;;;4944140;29;20230;-90
2022/07/01 09:39:51;;;;;;;2.60;1.27;;;;;;;;;;4921651;29;20199;-90
2022/07/01 09:42:55;;;;;;;1.67;1.20;;;;;;;;;;4938863;28;20202;-90
2022/07/01 09:46:02;;;;;;;1.53;1.20;;;;;;;;;;4939092;28;20214;-90
2022/07/01 09:49:06;;;;;;;7.60;1.40;;;;;;;;;;4951937;28;20557;-89
2022/07/01 09:52:11;;;;;;;1.57;1.33;;;;;;;;;;4938901;28;20194;-89
2022/07/01 09:55:15;;;;;;;1.93;1.10;;;;;;;;;;4921357;29;20682;-89
2022/07/01 09:58:19;;;;;;;1.57;1.30;;;;;;;;;;4922567;28;20195;-89
2022/07/01 10:01:24;;;;;;;1.47;1.10;;;;;;;;;;4943709;29;20184;-90
2022/07/01 10:04:32;;;;;;;1.63;1.37;;;;;;;;;;4943389;29;20536;-90
2022/07/01 10:07:52;;;;;;;1.37;0.90;;;;;;;;;;4925956;29;20509;-90
2022/07/01 10:11:01;;;;;;;1.90;1.40;;;;;;;;;;4937268;28;20199;-88
2022/07/01 10:14:07;;;;;;;1.77;1.03;;;;;;;;;;4938659;29;20533;-89
2022/07/01 10:17:27;;;;;;;2.50;1.10;;;;;;;;;;4929186;28;20590;-89
2022/07/01 10:20:31;;;;;;;1.80;1.03;;;;;;;;;;4966149;28;20191;-89
2022/07/01 10:23:41;;;;;;;1.10;1.00;;;;;;;;;;4942675;29;20203;-89
2022/07/01 10:26:46;;;;;;;1.20;1.10;;;;;;;;;;4925343;28;20211;-90
2022/07/01 10:30:13;;;;;;;1.77;1.00;;;;;;;;;;4942822;28;20199;-89
2022/07/01 10:33:34;;;;;;;2.40;1.00;;;;;;;;;;4942709;29;20192;-89
2022/07/01 10:36:38;;;;;;;1.07;0.97;;;;;;;;;;4926568;28;20572;-88
2022/07/01 10:40:02;;;;;;;1.10;0.90;;;;;;;;;;4944326;28;20519;-89
2022/07/01 10:43:06;;;;;;;1.30;1.17;;;;;;;;;;4931585;29;20200;-89
2022/07/01 10:46:45;;;;;;;1.77;1.17;;;;;;;;;;4935335;29;20678;-89
2022/07/01 10:49:55;;;;;;;2.90;1.13;;;;;;;;;;4924971;29;20662;-89
2022/07/01 10:53:02;;;;;;;1.30;1.10;;;;;;;;;;4946356;28;20199;-89
2022/07/01 10:56:41;;;;;;;2.20;1.00;;;;;;;;;;4978934;23;20234;-91
2022/07/01 11:00:00;;;;;;;1.03;0.93;;;;;;;;;;4946453;29;20192;-90
2022/07/01 11:03:10;;;;;;;1.30;1.10;;;;;;;;;;4955131;28;20194;-91
2022/07/01 11:06:14;;;;;;;2.97;1.50;;;;;;;;;;4969253;28;20211;-91
2022/07/01 11:09:18;;;;;;;1.20;0.90;;;;;;;;;;4916080;29;20184;-91
2022/07/01 11:12:23;;;;;;;1.20;1.00;;;;;;;;;;4913285;28;20725;-91
2022/07/01 11:15:30;;;;;;;3.87;1.03;;;;;;;;;;4924401;29;20200;-92
2022/07/01 11:18:35;;;;;;;1.20;1.07;;;;;;;;;;4937478;29;20188;-92
2022/07/01 11:21:48;;;;;;;3.40;1.03;;;;;;;;;;4927014;29;20200;-91
2022/07/01 11:24:54;;;;;;;0.90;0.90;;;;;;;;;;4960671;28;20183;-90
2022/07/01 11:27:58;;;;;;;1.00;0.90;;;;;;;;;;4954255;28;20210;-91
2022/07/01 11:31:02;;;;;;;0.70;0.70;;;;;;;;;;4943387;28;20626;-91
2022/07/01 11:34:07;;;;;;;0.70;0.63;;;;;;;;;;4943391;28;20198;-91
2022/07/01 11:40:34;;;;;;;0.80;0.80;;;;;;;;;;4965249;28;20183;-91
2022/07/01 11:43:39;;;;;;;1.33;0.60;;;;;;;;;;4923554;29;20544;-91
2022/07/01 11:46:49;;;;;;;0.50;0.50;;;;;;;;;;4915440;29;20220;-91
2022/07/01 11:49:54;;;;;;;2.30;0.80;;;;;;;;;;4915657;29;20635;-92
2022/07/01 11:52:59;;;;;;;1.53;1.00;;;;;;;;;;4915368;29;20200;-91
2022/07/01 11:56:04;;;;;;;2.00;0.67;;;;;;;;;;4904413;29;20707;-92
2022/07/01 11:59:08;;;;;;;1.73;0.70;;;;;;;;;;4904596;29;20192;-91
2022/07/01 12:02:17;;;;;;;0.70;0.70;;;;;;;;;;4904662;29;20204;-91
2022/07/01 12:06:52;;;;;;;1.23;0.70;;;;;;;;;;4937649;29;20227;-91
2022/07/01 12:20:12;;;;;;;1.17;1.00;;;;;;;;;;4900028;29;20196;-91
2022/07/01 12:23:21;;;;;;;4.53;1.07;;;;;;;;;;4877022;29;20189;-90
2022/07/01 12:26:26;;;;;;;2.80;1.10;;;;;;;;;;4894546;29;20224;-83
2022/07/01 12:29:45;;;;;;;1.40;1.30;;;;;;;;;;4925002;29;20200;-88
2022/07/01 12:32:50;;;;;;;1.40;1.30;;;;;;;;;;4914570;29;20185;-90
2022/07/01 12:36:01;;;;;;;2.10;1.20;;;;;;;;;;4915290;29;20212;-90
2022/07/01 12:39:06;;;;;;;1.30;1.20;;;;;;;;;;4941592;28;20650;-90
2022/07/01 12:42:38;;;;;;;2.53;1.40;;;;;;;;;;4914257;29;20193;-91
2022/07/01 12:45:43;;;;;;;1.97;1.77;;;;;;;;;;4904213;29;20184;-89
2022/07/01 12:48:48;;;;;;;1.43;1.27;;;;;;;;;;4914312;29;20188;-91
2022/07/01 12:51:53;;;;;;;5.47;1.47;;;;;;;;;;4914342;29;20204;-91
2022/07/01 12:54:57;;;;;;;5.57;1.90;;;;;;;;;;4914322;29;20204;-89
2022/07/01 12:58:06;;;;;;;2.27;1.80;;;;;;;;;;4913997;29;20220;-90
2022/07/01 13:01:11;;;;;;;4.63;1.70;;;;;;;;;;4914650;29;20184;-88
2022/07/01 13:04:26;;;;;;;1.83;1.57;;;;;;;;;;4914358;29;20184;-91
2022/07/01 13:07:31;;;;;;;2.13;1.70;;;;;;;;;;4903077;29;20216;-90
2022/07/01 13:10:35;;;;;;;1.50;1.40;;;;;;;;;;4913855;29;20659;-89
2022/07/01 13:13:40;;;;;;;1.50;1.40;;;;;;;;;;4926191;29;20180;-89
2022/07/01 13:16:44;;;;;;;1.77;1.50;;;;;;;;;;4913628;29;20220;-89
2022/07/01 13:19:48;;;;;;;1.50;1.40;;;;;;;;;;4903391;29;20184;-89
2022/07/01 13:22:53;;;;;;;1.30;1.20;;;;;;;;;;4913935;29;20180;-89
2022/07/01 13:25:57;;;;;;;1.43;1.27;;;;;;;;;;4902873;29;20200;-89
2022/07/01 13:29:01;;;;;;;1.60;1.30;;;;;;;;;;4936102;29;20659;-89
2022/07/01 13:32:05;;;;;;;1.70;1.40;;;;;;;;;;4903150;29;20188;-90
2022/07/01 13:35:11;;;;;;;1.60;1.40;;;;;;;;;;4913877;29;20536;-91
2022/07/01 13:38:16;;;;;;;2.33;1.50;;;;;;;;;;4902853;29;20172;-90
2022/07/01 13:41:21;;;;;;;2.10;1.40;;;;;;;;;;4923898;29;20533;-90
2022/07/01 13:44:25;;;;;;;2.40;1.17;;;;;;;;;;4902961;29;20188;-89
2022/07/01 13:47:29;;;;;;;3.80;1.47;;;;;;;;;;4902456;29;20219;-89
2022/07/01 13:50:34;;;;;;;1.17;1.07;;;;;;;;;;4902794;29;20200;-90
2022/07/01 13:53:38;;;;;;;1.60;1.27;;;;;;;;;;4913058;29;20192;-89
2022/07/01 13:56:42;;;;;;;1.93;1.30;;;;;;;;;;4912984;29;20223;-90
2022/07/01 13:59:46;;;;;;;2.50;1.30;;;;;;;;;;4918819;28;20203;-90
2022/07/01 14:02:51;;;;;;;4.27;1.30;;;;;;;;;;4902759;29;20211;-90
2022/07/01 14:05:55;;;;;;;1.43;1.23;;;;;;;;;;4902670;29;20208;-90
2022/07/01 14:08:59;;;;;;;3.03;1.17;;;;;;;;;;4913383;29;20521;-91
2022/07/01 14:12:04;;;;;;;1.73;1.40;;;;;;;;;;4933379;28;20198;-90
2022/07/01 14:15:09;;;;;;;4.50;1.30;;;;;;;;;;4952004;28;20187;-90
2022/07/01 14:18:13;;;;;;;1.60;1.50;;;;;;;;;;4951443;28;20202;-90
2022/07/01 14:21:18;;;;;;;1.50;1.40;;;;;;;;;;4940748;28;20183;-90
2022/07/01 14:24:22;;;;;;;1.93;1.17;;;;;;;;;;4935115;29;20204;-89
2022/07/01 14:27:26;;;;;;;1.83;1.20;;;;;;;;;;4932280;29;20211;-89
2022/07/01 14:30:30;;;;;;;1.80;1.00;;;;;;;;;;4921590;29;20655;-89
2022/07/01 14:33:35;;;;;;;1.20;0.90;;;;;;;;;;4932537;29;20196;-90
2022/07/01 14:36:39;;;;;;;1.17;1.07;;;;;;;;;;4931966;29;20219;-89
2022/07/01 14:39:43;;;;;;;1.30;1.20;;;;;;;;;;4932398;29;20188;-90
2022/07/01 14:42:47;;;;;;;1.50;1.20;;;;;;;;;;4932391;29;20188;-90
2022/07/01 14:45:51;;;;;;;1.10;1.00;;;;;;;;;;4932182;29;20183;-90
2022/07/01 14:48:56;;;;;;;1.20;1.03;;;;;;;;;;4921106;29;20188;-90
2022/07/01 14:52:00;;;;;;;1.27;1.13;;;;;;;;;;4922729;29;20187;-90
2022/07/01 14:55:05;;;;;;;1.00;0.90;;;;;;;;;;4925027;29;20192;-90
2022/07/01 14:58:09;;;;;;;1.50;1.07;;;;;;;;;;4946104;29;20200;-91
2022/07/01 15:01:15;;;;;;;0.77;0.77;;;;;;;;;;4935228;29;20188;-91
2022/07/01 15:04:19;;;;;;;1.67;1.00;;;;;;;;;;4924589;29;20179;-91
2022/07/01 15:07:28;;;;;;;1.07;0.97;;;;;;;;;;4945961;29;20567;-91
2022/07/01 15:10:32;;;;;;;0.70;0.70;;;;;;;;;;4934915;29;20176;-91
2022/07/01 15:13:37;;;;;;;1.00;0.90;;;;;;;;;;4935476;29;20179;-91
2022/07/01 15:16:41;;;;;;;0.90;0.80;;;;;;;;;;4924477;29;20220;-91
2022/07/01 15:19:45;;;;;;;0.93;0.90;;;;;;;;;;4935249;29;20179;-91
2022/07/01 15:22:49;;;;;;;0.70;0.70;;;;;;;;;;4954366;28;20632;-91
2022/07/01 15:25:54;;;;;;;0.60;0.60;;;;;;;;;;4944444;28;20527;-91
2022/07/01 15:28:59;;;;;;;0.60;0.60;;;;;;;;;;4948868;28;20183;-91
2022/07/01 15:32:05;;;;;;;1.20;0.60;;;;;;;;;;4935302;29;20191;-91
2022/07/01 15:35:09;;;;;;;1.10;0.70;;;;;;;;;;4924573;29;20184;-90
2022/07/01 15:38:13;;;;;;;0.43;0.43;;;;;;;;;;4934404;29;20207;-91
2022/07/01 15:41:17;;;;;;;0.93;0.60;;;;;;;;;;4934812;29;20211;-91
2022/07/01 15:44:21;;;;;;;0.97;0.90;;;;;;;;;;4923657;29;20199;-91
2022/07/01 15:50:49;;;;;;;0.80;0.80;;;;;;;;;;4926302;29;20184;-90
2022/07/01 15:53:57;;;;;;;1.83;0.70;;;;;;;;;;4938552;28;20206;-90
2022/07/01 15:57:02;;;;;;;0.63;0.63;;;;;;;;;;4923496;29;20227;-91
2022/07/01 16:00:06;;;;;;;0.80;0.80;;;;;;;;;;4923659;29;20188;-91
2022/07/01 16:03:11;;;;;;;1.90;0.80;;;;;;;;;;4922711;28;20184;-91
2022/07/01 16:06:17;;;;;;;1.37;1.00;;;;;;;;;;4945224;29;20219;-91
2022/07/01 16:09:21;;;;;;;0.73;0.73;;;;;;;;;;4934214;29;20180;-91
2022/07/01 16:12:26;;;;;;;0.77;0.73;;;;;;;;;;4915172;29;20212;-91
2022/07/01 16:15:33;;;;;;;1.97;0.77;;;;;;;;;;4915100;29;20204;-91
2022/07/01 16:18:37;;;;;;;1.00;0.90;;;;;;;;;;4914754;29;20212;-91
2022/07/01 16:21:42;;;;;;;2.53;1.00;;;;;;;;;;4915002;29;20644;-92
2022/07/01 16:24:50;;;;;;;0.80;0.77;;;;;;;;;;4925692;29;20184;-92
2022/07/01 16:27:55;;;;;;;0.90;0.90;;;;;;;;;;4914978;29;20553;-91
2022/07/01 16:31:00;;;;;;;2.13;0.97;;;;;;;;;;4914551;29;20525;-92
2022/07/01 16:34:04;;;;;;;0.90;0.80;;;;;;;;;;4914463;29;20200;-92
2022/07/01 16:37:13;;;;;;;0.70;0.70;;;;;;;;;;4915022;29;20223;-92
2022/07/01 16:40:26;;;;;;;1.20;0.80;;;;;;;;;;4915558;29;20204;-91
2022/07/01 16:43:46;;;;;;;2.80;0.70;;;;;;;;;;4925541;29;20184;-88
2022/07/01 16:46:53;;;;;;;0.70;0.60;;;;;;;;;;4904000;29;20224;-92
2022/07/01 16:50:06;;;;;;;2.80;0.90;;;;;;;;;;4903722;29;20184;-92
2022/07/01 16:53:15;;;;;;;1.00;0.80;;;;;;;;;;4904451;29;20184;-91
2022/07/01 16:56:24;;;;;;;1.03;0.90;;;;;;;;;;4943816;23;20220;-88
2022/07/01 16:59:31;;;;;;;0.93;0.60;;;;;;;;;;4960437;28;20549;-89
2022/07/01 17:02:35;;;;;;;1.83;0.60;;;;;;;;;;4955572;28;20649;-88
2022/07/01 17:05:40;;;;;;;0.83;0.60;;;;;;;;;;4958058;28;20649;-89
2022/07/01 17:08:44;;;;;;;0.87;0.70;;;;;;;;;;4952533;28;20179;-88
2022/07/01 17:11:50;;;;;;;0.80;0.70;;;;;;;;;;4952717;28;20185;-89
2022/07/01 17:14:56;;;;;;;0.43;0.43;;;;;;;;;;4940845;28;20187;-89
2022/07/01 17:18:01;;;;;;;1.10;0.70;;;;;;;;;;4922167;29;20235;-88
2022/07/01 17:21:05;;;;;;;1.17;0.73;;;;;;;;;;4933039;29;20180;-89
2022/07/01 17:24:11;;;;;;;0.63;0.63;;;;;;;;;;4922344;29;20222;-89
2022/07/01 17:27:46;;;;;;;2.43;0.80;;;;;;;;;;4948547;28;20223;-88
2022/07/01 17:31:09;;;;;;;0.60;0.60;;;;;;;;;;4952273;28;20179;-89
2022/07/01 17:34:15;;;;;;;0.70;0.70;;;;;;;;;;4941628;28;20190;-89
2022/07/01 17:37:19;;;;;;;0.80;0.80;;;;;;;;;;4941353;28;20701;-88
2022/07/01 17:40:25;;;;;;;0.60;0.60;;;;;;;;;;4951979;28;20202;-88
2022/07/01 17:43:31;;;;;;;1.00;0.67;;;;;;;;;;4922568;29;20180;-88
2022/07/01 17:46:37;;;;;;;0.70;0.70;;;;;;;;;;4932525;29;20219;-88
2022/07/01 17:49:44;;;;;;;0.60;0.60;;;;;;;;;;4940722;28;20206;-88
2022/07/01 17:52:49;;;;;;;1.20;0.80;;;;;;;;;;4952333;28;20191;-88
2022/07/01 17:55:54;;;;;;;2.63;0.90;;;;;;;;;;4952171;28;20638;-88
2022/07/01 17:59:01;;;;;;;1.83;0.80;;;;;;;;;;4926021;28;20215;-87
2022/07/01 18:02:07;;;;;;;1.80;0.80;;;;;;;;;;4940256;28;20179;-86
2022/07/01 18:05:12;;;;;;;0.83;0.80;;;;;;;;;;4952088;28;20183;-89
2022/07/01 18:08:17;;;;;;;1.63;0.93;;;;;;;;;;4936969;28;20227;-88
2022/07/01 18:11:57;;;;;;;2.23;0.93;;;;;;;;;;4955767;28;20199;-89
2022/07/01 18:15:12;;;;;;;0.80;0.80;;;;;;;;;;4951762;28;20195;-88
2022/07/01 18:18:20;;;;;;;0.93;0.87;;;;;;;;;;4932710;28;20578;-89
2022/07/01 18:21:25;;;;;;;0.87;0.80;;;;;;;;;;4939020;28;20191;-87
2022/07/01 18:24:36;;;;;;;2.00;0.70;;;;;;;;;;4929260;28;20191;-88
2022/07/01 18:27:44;;;;;;;0.67;0.67;;;;;;;;;;4943130;28;20214;-87
2022/07/01 18:30:48;;;;;;;1.43;0.50;;;;;;;;;;4945670;28;20685;-87
2022/07/01 18:34:12;;;;;;;1.20;0.60;;;;;;;;;;4940681;29;20188;-88
2022/07/01 18:37:21;;;;;;;0.90;0.50;;;;;;;;;;4924979;29;20223;-88
2022/07/01 18:40:28;;;;;;;1.10;0.80;;;;;;;;;;4931216;28;20187;-88
2022/07/01 18:43:33;;;;;;;1.23;0.70;;;;;;;;;;4943652;28;20198;-88
2022/07/01 18:46:37;;;;;;;0.97;0.60;;;;;;;;;;4949391;28;20227;-88
2022/07/01 18:49:41;;;;;;;1.10;0.70;;;;;;;;;;4946648;28;20195;-88
2022/07/01 18:52:45;;;;;;;1.07;0.80;;;;;;;;;;4937186;28;20176;-89
2022/07/01 18:55:49;;;;;;;1.13;0.60;;;;;;;;;;4944601;28;20249;-88
2022/07/01 18:58:53;;;;;;;2.43;0.70;;;;;;;;;;4943593;28;20574;-89
2022/07/01 19:01:58;;;;;;;0.80;0.73;;;;;;;;;;4937834;28;20187;-88
2022/07/01 19:05:02;;;;;;;2.57;0.80;;;;;;;;;;4940792;28;20187;-88